createdAt,value
2022-12-23T00:00:10.339Z,1005.0478414229004
2022-12-23T00:05:05.593Z,1005.0647306929218
2022-12-23T00:10:01.852Z,1005.0991125394759
2022-12-23T00:14:58.135Z,1005.1093532858042
2022-12-23T00:19:54.347Z,1005.1368546474229
2022-12-23T00:24:50.649Z,1005.1719647242825
2022-12-23T00:29:46.873Z,1005.2904416220157
2022-12-23T00:34:43.137Z,1005.2493704223718
2022-12-23T00:39:43.351Z,1005.1809781126094
2022-12-23T00:44:39.627Z,1005.1743323915186
2022-12-23T00:49:35.898Z,1005.1552922227245
2022-12-23T00:54:32.161Z,1005.0817053118869
2022-12-23T00:59:28.387Z,1005.1104901044943
2022-12-23T01:04:24.664Z,1005.043533688841
2022-12-23T01:09:20.970Z,1005.1273705337754
2022-12-23T01:14:17.207Z,1005.2167434192936
2022-12-23T01:19:13.446Z,1005.2384453736191
2022-12-23T01:24:09.730Z,1005.256683678736
2022-12-23T01:29:06.983Z,1005.1569820863383
2022-12-23T01:34:03.285Z,1005.0522936922923
2022-12-23T01:38:59.486Z,1004.8608558669151
2022-12-23T01:43:55.736Z,1004.8130942644591
2022-12-23T01:48:53.980Z,1004.8189916275228
2022-12-23T01:53:53.247Z,1004.8200460413979
2022-12-23T01:58:54.518Z,1004.776584468603
2022-12-23T02:03:52.777Z,1004.7133705119774
2022-12-23T02:08:48.983Z,1004.6925552180451
2022-12-23T02:13:51.274Z,1004.6566870436357
2022-12-23T02:19:01.478Z,1004.655497852307
2022-12-23T02:24:17.662Z,1004.6714679845323
2022-12-23T02:29:31.901Z,1004.6293285913696
2022-12-23T02:34:36.160Z,1004.5973109538131
2022-12-23T02:39:38.379Z,1004.4219564094742
2022-12-23T02:44:42.652Z,1004.4563746530207
2022-12-23T02:49:44.888Z,1004.4776635949373
2022-12-23T02:59:51.375Z,1004.3474306490026
2022-12-23T03:04:47.618Z,1004.3685450282637
2022-12-23T03:09:53.871Z,1004.3408401192959
2022-12-23T03:15:08.078Z,1004.3071346971931
2022-12-23T03:20:12.332Z,1004.2781589487112
2022-12-23T03:25:13.567Z,1004.2146610601405
2022-12-23T03:30:14.818Z,1004.2267294777959
2022-12-23T03:35:14.072Z,1004.2608399951251
2022-12-23T03:40:15.298Z,1004.2196036042193
2022-12-23T03:45:38.297Z,1004.2474349681953
2022-12-23T03:50:22.773Z,1004.1533718096491
2022-12-23T03:55:24.011Z,1004.2441548931149
2022-12-23T04:00:21.287Z,1004.075377496144
2022-12-23T04:10:29.751Z,1004.071932395666
2022-12-23T04:15:27.058Z,1004.1130816336955
2022-12-23T04:20:24.294Z,1004.1478025218778
2022-12-23T04:30:29.783Z,1004.1480096831802
2022-12-23T04:40:31.262Z,1004.2877295234639
2022-12-23T04:45:27.547Z,1004.2691489911535
2022-12-23T04:50:22.801Z,1004.2904848500343
2022-12-23T04:55:19.047Z,1004.2771212338561
2022-12-23T05:00:16.293Z,1004.1884554083975
2022-12-23T05:05:12.549Z,1004.2166783888107
2022-12-23T05:10:09.811Z,1004.2965670611904
2022-12-23T05:15:07.106Z,1004.200903426502
2022-12-23T05:20:02.349Z,1004.2865568456549
2022-12-23T05:24:57.637Z,1004.4117053380555
2022-12-23T05:29:53.847Z,1004.3055600885549
2022-12-23T05:34:50.112Z,1004.3174779296683
2022-12-23T05:39:46.348Z,1004.4388649234189
2022-12-23T05:44:42.610Z,1004.3696370781726
2022-12-23T05:49:38.870Z,1004.3845741435348
2022-12-23T05:54:35.143Z,1004.4189141720541
2022-12-23T05:59:31.958Z,1004.3744209401368
2022-12-23T06:04:27.777Z,1004.4018260295313
2022-12-23T06:09:23.930Z,1004.480036951018
2022-12-23T06:14:25.169Z,1004.4591650632104
2022-12-23T06:19:21.444Z,1004.6176511113009
2022-12-23T06:24:17.661Z,1004.5146074160234
2022-12-23T06:29:13.924Z,1004.5438858397414
2022-12-23T06:34:10.210Z,1004.5521230247108
2022-12-23T06:39:06.482Z,1004.5546672502586
2022-12-23T06:44:01.719Z,1004.5871081443008
2022-12-23T06:48:56.999Z,1004.6939692977717
2022-12-23T06:53:53.244Z,1004.848146477276
2022-12-23T06:58:49.525Z,1004.883249315522
2022-12-23T07:03:45.857Z,1005.044264816984
2022-12-23T07:08:42.051Z,1005.1213214945134
2022-12-23T07:13:38.285Z,1005.0468140470516
2022-12-23T07:18:34.553Z,1005.1512072641289
2022-12-23T07:23:30.783Z,1005.1780114989175
2022-12-23T07:28:26.112Z,1005.1729165444527
2022-12-23T07:33:22.354Z,1005.2199344158289
2022-12-23T07:38:22.609Z,1005.1586910749454
2022-12-23T07:43:19.830Z,1005.050583313757
2022-12-23T07:48:16.095Z,1004.9469300765022
2022-12-23T07:53:12.341Z,1004.93654968391
2022-12-23T07:58:08.604Z,1004.8767150404786
2022-12-23T08:03:05.064Z,1004.9046080684486
2022-12-23T08:08:01.146Z,1004.9320333346333
2022-12-23T08:12:59.376Z,1005.0028837711835
2022-12-23T08:17:57.630Z,1004.9365428345109
2022-12-23T08:22:54.894Z,1004.883758190365
2022-12-23T08:27:51.182Z,1004.7951926601663
2022-12-23T08:32:48.430Z,1004.8583229486042
2022-12-23T08:38:16.619Z,1004.8943121489915
2022-12-23T08:43:12.853Z,1005.0217571367943
2022-12-23T08:48:09.130Z,1005.0814897473282
2022-12-23T08:53:05.376Z,1005.1192146796104
2022-12-23T08:58:01.662Z,1005.14310740823
2022-12-23T09:02:58.041Z,1005.1027863387313
2022-12-23T09:07:54.133Z,1005.1084015161682
2022-12-23T09:12:50.373Z,1005.019777449849
2022-12-23T09:17:45.694Z,1004.9502727074863
2022-12-23T09:22:40.915Z,1004.8862748198349
2022-12-23T09:27:37.197Z,1004.8056881384427
2022-12-23T09:32:33.427Z,1004.7966344393889
2022-12-23T09:37:29.689Z,1004.7177540425787
2022-12-23T09:42:41.951Z,1004.7120765156385
2022-12-23T09:47:41.158Z,1004.6855305418482
2022-12-23T09:52:42.456Z,1004.5976395330226
2022-12-23T09:57:47.652Z,1004.5585931261708
2022-12-23T10:02:55.058Z,1004.7142595572644
2022-12-23T10:07:58.123Z,1004.5848817327948
2022-12-23T10:13:01.411Z,1004.5099937892219
2022-12-23T10:18:02.626Z,1004.5013061858776
2022-12-23T10:23:04.857Z,1004.4805897772545
2022-12-23T10:28:02.127Z,1004.4843961046927
2022-12-23T10:33:04.375Z,1004.4507591855099
2022-12-23T10:38:09.646Z,1004.3993144830623
2022-12-23T10:43:14.836Z,1004.3649199237748
2022-12-23T10:53:29.321Z,1004.1568913912422
2022-12-23T10:58:28.591Z,1004.0890586420345
2022-12-23T11:03:31.091Z,1004.0859445625573
2022-12-23T11:08:29.064Z,1003.9999962320048
2022-12-23T11:13:30.360Z,1003.9055968065524
2022-12-23T11:18:30.513Z,1003.9304111731825
2022-12-23T11:23:27.866Z,1003.8723996437606
2022-12-23T11:28:24.072Z,1003.9311061452695
2022-12-23T11:33:22.300Z,1003.7784444813619
2022-12-23T11:38:18.595Z,1003.6782543168742
2022-12-23T11:43:15.841Z,1003.6555020853282
2022-12-23T11:48:18.073Z,1003.5374747790539
2022-12-23T11:53:21.330Z,1003.5490989761539
2022-12-23T11:58:20.576Z,1003.4153492876623
2022-12-23T12:03:18.921Z,1003.3435296293219
2022-12-23T12:08:19.129Z,1003.2895431207306
2022-12-23T12:13:22.369Z,1003.2825874982626
2022-12-23T12:18:20.605Z,1003.2640384159198
2022-12-23T12:23:21.820Z,1003.2393647617073
2022-12-23T12:28:23.069Z,1003.3624384200465
2022-12-23T12:33:28.326Z,1003.3392147683875
2022-12-23T12:38:29.621Z,1003.3774921034769
2022-12-23T12:43:30.796Z,1003.2736978382603
2022-12-23T12:48:36.024Z,1003.3298232319539
2022-12-23T12:53:36.302Z,1003.2946690686201
2022-12-23T12:58:32.532Z,1003.197916001573
2022-12-23T13:03:51.705Z,1003.1625963515237
2022-12-23T13:09:02.006Z,1003.2249591695651
2022-12-23T13:14:07.229Z,1003.2197702362005
2022-12-23T13:19:14.445Z,1003.3070123650742
2022-12-23T13:24:17.679Z,1003.3274834428853
2022-12-23T13:29:21.901Z,1003.3143513282845
2022-12-23T13:34:28.166Z,1003.3736640332386
2022-12-23T13:39:40.437Z,1003.2819112786623
2022-12-23T13:44:39.652Z,1003.4090832928102
2022-12-23T13:49:46.866Z,1003.3193019922747
2022-12-23T13:54:54.099Z,1003.4288267143711
2022-12-23T14:00:01.108Z,1003.2621891181052
2022-12-23T14:05:02.608Z,1003.2232039428777
2022-12-23T14:10:06.841Z,1003.1975827561416
2022-12-23T14:15:13.049Z,1003.1920175715704
2022-12-23T14:20:22.343Z,1003.1100458691031
2022-12-23T14:25:32.505Z,1003.1049965736602
2022-12-23T14:30:33.719Z,1003.1196011367132
2022-12-23T14:35:45.029Z,1003.25527410479
2022-12-23T14:40:53.250Z,1003.2335242465684
2022-12-23T14:45:59.517Z,1003.2916624647556
2022-12-23T14:51:10.670Z,1003.3222800176895
2022-12-23T14:56:18.900Z,1003.3704596220861
2022-12-23T15:01:18.248Z,1003.3786813194579
2022-12-23T15:06:16.411Z,1003.3380390008093
2022-12-23T15:11:16.645Z,1003.3953534595151
2022-12-23T15:16:17.964Z,1003.4498238788269
2022-12-23T15:26:21.396Z,1003.5030977101001
2022-12-23T15:31:24.698Z,1003.5117365053807
2022-12-23T15:41:28.139Z,1003.5356040168995
2022-12-23T15:46:29.772Z,1003.4710182757117
2022-12-23T15:51:57.694Z,1003.5019507815655
2022-12-23T15:56:33.871Z,1003.5697690642229
2022-12-23T16:01:36.109Z,1003.500056016776
2022-12-23T16:06:38.333Z,1003.5276702532376
2022-12-23T16:11:38.588Z,1003.549149655431
2022-12-23T16:16:43.881Z,1003.5820568543907
2022-12-23T16:21:43.063Z,1003.5335932486413
2022-12-23T16:26:42.327Z,1003.4709402168228
2022-12-23T16:31:41.603Z,1003.3087072621908
2022-12-23T16:36:47.920Z,1003.339671264136
2022-12-23T16:41:45.156Z,1003.3202709324859
2022-12-23T16:46:48.319Z,1003.2835398742443
2022-12-23T16:51:45.572Z,1003.4236000301612
2022-12-23T16:56:42.890Z,1003.381434318676
2022-12-23T17:01:42.369Z,1003.4076129541172
2022-12-23T17:06:42.318Z,1003.3333998662015
2022-12-23T17:11:44.559Z,1003.3052917569072
2022-12-23T17:16:44.938Z,1003.3036311770302
2022-12-23T17:21:44.053Z,1003.354863670294
2022-12-23T17:26:40.304Z,1003.3804676655194
2022-12-23T17:31:36.611Z,1003.2964239879316
2022-12-23T17:36:32.899Z,1003.1830496033689
2022-12-23T17:41:30.123Z,1003.1491935051253
2022-12-23T17:46:26.382Z,1003.1230579086825
2022-12-23T17:51:22.614Z,1003.1041203066158
2022-12-23T17:56:19.879Z,1003.0087962233713
2022-12-23T18:01:17.182Z,1003.0714702733222
2022-12-23T18:06:14.461Z,1003.0683890254544
2022-12-23T18:11:15.661Z,1003.0815292435175
2022-12-23T18:16:12.969Z,1003.1186239763682
2022-12-23T18:21:13.181Z,1003.1018074092224
2022-12-23T18:26:12.393Z,1003.0860604011119
2022-12-23T18:31:13.816Z,1003.1470492439654
2022-12-23T18:36:16.943Z,1003.1307812557856
2022-12-23T18:41:13.129Z,1003.2368157630103
2022-12-23T18:46:09.537Z,1003.0927144307602
2022-12-23T18:51:06.676Z,1003.0734108034017
2022-12-23T18:56:02.972Z,1003.2134119067813
2022-12-23T19:01:00.304Z,1003.3467121703173
2022-12-23T19:05:58.430Z,1003.2204518516756
2022-12-23T19:10:55.790Z,1003.1716166454822
2022-12-23T19:15:52.202Z,1003.3337690071477
2022-12-23T19:20:49.266Z,1003.2669320174926
2022-12-23T19:25:54.354Z,1003.1068721073003
2022-12-23T19:30:48.892Z,1003.0132160910435
2022-12-23T19:35:45.047Z,1002.9825209072951
2022-12-23T19:40:41.214Z,1003.0446648166078
2022-12-23T19:45:39.494Z,1003.0867257522644
2022-12-23T19:50:35.731Z,1003.1053812188549
2022-12-23T19:55:32.029Z,1003.137454082221
2022-12-23T20:00:28.269Z,1003.1169781440453
2022-12-23T20:05:24.534Z,1003.2032323568569
2022-12-23T20:10:22.336Z,1003.1967370751321
2022-12-23T20:15:18.020Z,1003.1968460656898
2022-12-23T20:20:14.308Z,1003.2318752446321
2022-12-23T20:25:10.534Z,1003.2343489264745
2022-12-23T20:30:07.818Z,1003.190418544405
2022-12-23T20:35:04.108Z,1003.2630158966614
2022-12-23T20:40:00.536Z,1003.361987959305
2022-12-23T20:44:56.625Z,1003.3969406510872
2022-12-23T20:49:52.867Z,1003.4616196957417
2022-12-23T20:55:03.507Z,1003.4221256945316
2022-12-23T21:00:09.296Z,1003.4704459656745
2022-12-23T21:05:05.638Z,1003.4591644856047
2022-12-23T21:10:01.806Z,1003.4936328862725
2022-12-23T21:14:58.106Z,1003.4778968317968
2022-12-23T21:19:54.351Z,1003.4847566284287
2022-12-23T21:24:50.627Z,1003.4831288997235
2022-12-23T21:29:46.882Z,1003.3767966516967
2022-12-23T21:34:43.104Z,1003.4606207953543
2022-12-23T21:39:42.375Z,1003.4213579645926
2022-12-23T21:44:37.646Z,1003.3728035250148
2022-12-23T21:49:33.921Z,1003.3806228290192
2022-12-23T21:54:30.159Z,1003.2478867639418
2022-12-23T21:59:32.798Z,1003.2489306307917
2022-12-23T22:04:27.696Z,1003.2284163209735
2022-12-23T22:09:24.895Z,1003.206201455782
2022-12-23T22:14:21.194Z,1003.1914515330266
2022-12-23T22:19:17.438Z,1003.1255501168026
2022-12-23T22:24:13.712Z,1003.1655534607678
2022-12-23T22:29:09.987Z,1003.1835114862984
2022-12-23T22:34:07.236Z,1003.1844251272606
2022-12-23T22:39:03.469Z,1003.1193662598977
2022-12-23T22:43:59.731Z,1003.1772039649102
2022-12-23T22:48:55.988Z,1003.1567376562732
2022-12-23T22:53:52.251Z,1003.1964425268843
2022-12-23T22:58:49.503Z,1003.14026570121
2022-12-23T23:03:45.805Z,1003.1061793842179
2022-12-23T23:08:42.036Z,1003.005575823674
2022-12-23T23:13:38.270Z,1002.8671163156853
2022-12-23T23:18:34.548Z,1002.8769292494025
2022-12-23T23:23:30.855Z,1002.8285316626582
2022-12-23T23:28:27.091Z,1002.9276383128267
2022-12-23T23:33:23.317Z,1002.7853071159634
2022-12-23T23:38:19.579Z,1002.7877485412068
2022-12-23T23:43:15.844Z,1002.7096971117786
2022-12-23T23:48:12.105Z,1002.6005632844916
2022-12-23T23:53:08.373Z,1002.5873770430364
2022-12-23T23:58:04.616Z,1002.6276433702894
